createdAt,value
2022-10-14T00:01:40.076Z,100.00
2022-10-14T00:04:13.290Z,100.00
2022-10-14T00:06:41.104Z,100.00
2022-10-14T00:09:11.060Z,100.00
2022-10-14T00:11:47.069Z,100.00
2022-10-14T00:14:16.906Z,100.00
2022-10-14T00:16:50.758Z,100.00
2022-10-14T00:19:19.910Z,100.00
2022-10-14T00:21:49.786Z,100.00
2022-10-14T00:24:20.724Z,100.00
2022-10-14T00:26:50.652Z,100.00
2022-10-14T00:29:19.397Z,100.00
2022-10-14T00:31:49.724Z,100.00
2022-10-14T00:34:21.049Z,100.00
2022-10-14T00:36:49.206Z,100.00
2022-10-14T00:39:19.184Z,100.00
2022-10-14T00:41:51.510Z,100.00
2022-10-14T00:44:58.148Z,100.00
2022-10-14T00:47:28.791Z,100.00
2022-10-14T00:50:02.650Z,100.00
2022-10-14T00:52:32.735Z,100.00
2022-10-14T00:55:06.684Z,100.00
2022-10-14T00:57:36.993Z,100.00
2022-10-14T01:00:10.266Z,100.00
2022-10-14T01:02:40.496Z,100.00
2022-10-14T01:05:14.077Z,100.00
2022-10-14T01:07:49.845Z,100.00
2022-10-14T01:10:26.123Z,100.00
2022-10-14T01:13:05.455Z,100.00
2022-10-14T01:15:41.108Z,100.00
2022-10-14T01:18:24.793Z,100.00
2022-10-14T01:21:10.834Z,100.00
2022-10-14T01:23:53.867Z,100.00
2022-10-14T01:26:47.958Z,100.00
2022-10-14T01:29:31.459Z,100.00
2022-10-14T01:32:05.870Z,100.00
2022-10-14T01:34:39.601Z,100.00
2022-10-14T01:37:16.274Z,100.00
2022-10-14T01:39:49.727Z,100.00
2022-10-14T01:42:24.477Z,100.00
2022-10-14T01:44:59.634Z,100.00
2022-10-14T01:47:32.347Z,100.00
2022-10-14T01:50:05.738Z,100.00
2022-10-14T01:52:39.745Z,100.00
2022-10-14T01:55:15.435Z,100.00
2022-10-14T01:57:48.068Z,100.00
2022-10-14T02:00:18.464Z,100.00
2022-10-14T02:02:48.128Z,100.00
2022-10-14T02:05:24.369Z,100.00
2022-10-14T02:07:59.122Z,100.00
2022-10-14T02:10:44.725Z,100.00
2022-10-14T02:13:27.098Z,100.00
2022-10-14T02:16:08.270Z,100.00
2022-10-14T02:18:43.622Z,100.00
2022-10-14T02:21:20.955Z,100.00
2022-10-14T02:23:54.755Z,100.00
2022-10-14T02:26:25.600Z,100.00
2022-10-14T02:28:58.010Z,100.00
2022-10-14T02:31:30.138Z,100.00
2022-10-14T02:34:05.467Z,100.00
2022-10-14T02:36:37.097Z,100.00
2022-10-14T02:39:10.898Z,100.00
2022-10-14T02:41:41.326Z,100.00
2022-10-14T02:44:11.342Z,100.00
2022-10-14T02:46:41.781Z,100.00
2022-10-14T02:49:12.876Z,100.00
2022-10-14T02:51:40.681Z,100.00
2022-10-14T02:54:08.615Z,100.00
2022-10-14T02:56:36.428Z,100.00
2022-10-14T02:59:04.536Z,100.00
2022-10-14T03:01:37.596Z,100.00
2022-10-14T03:04:07.785Z,100.00
2022-10-14T03:06:39.052Z,100.00
2022-10-14T03:09:06.785Z,100.00
2022-10-14T03:11:36.430Z,100.00
2022-10-14T03:14:06.848Z,100.00
2022-10-14T03:16:34.619Z,100.00
2022-10-14T03:19:04.228Z,100.00
2022-10-14T03:21:34.411Z,100.00
2022-10-14T03:24:03.573Z,100.00
2022-10-14T03:26:33.196Z,100.00
2022-10-14T03:29:03.086Z,100.00
2022-10-14T03:31:30.872Z,100.00
2022-10-14T03:34:00.750Z,100.00
2022-10-14T03:36:30.672Z,100.00
2022-10-14T03:38:58.484Z,100.00
2022-10-14T03:41:29.889Z,100.00
2022-10-14T03:43:59.747Z,100.00
2022-10-14T03:46:27.574Z,100.00
2022-10-14T03:48:55.666Z,100.00
2022-10-14T03:51:25.543Z,100.00
2022-10-14T03:53:53.285Z,100.00
2022-10-14T03:56:23.007Z,100.00
2022-10-14T03:58:53.956Z,100.00
2022-10-14T04:01:21.906Z,100.00
2022-10-14T04:03:54.038Z,100.00
2022-10-14T04:06:21.851Z,100.00
2022-10-14T04:08:49.673Z,100.00
2022-10-14T04:11:21.484Z,100.00
2022-10-14T04:13:49.284Z,100.00
2022-10-14T04:16:18.488Z,100.00
2022-10-14T04:18:52.279Z,100.00
2022-10-14T04:21:20.101Z,100.00
2022-10-14T04:23:47.865Z,100.00
2022-10-14T04:26:20.362Z,100.00
2022-10-14T04:28:48.207Z,100.00
2022-10-14T04:31:15.961Z,100.00
2022-10-14T04:33:49.188Z,100.00
2022-10-14T04:36:17.022Z,100.00
2022-10-14T04:38:44.777Z,100.00
2022-10-14T04:41:16.619Z,100.00
2022-10-14T04:43:44.371Z,100.00
2022-10-14T04:46:12.081Z,100.00
2022-10-14T04:48:43.978Z,100.00
2022-10-14T04:51:15.565Z,100.00
2022-10-14T04:53:43.324Z,100.00
2022-10-14T04:56:12.909Z,100.00
2022-10-14T04:58:42.854Z,100.00
2022-10-14T05:01:10.585Z,100.00
2022-10-14T05:03:40.196Z,100.00
2022-10-14T05:06:10.445Z,100.00
2022-10-14T05:08:39.632Z,100.00
2022-10-14T05:11:09.286Z,100.00
2022-10-14T05:13:39.166Z,100.00
2022-10-14T05:16:08.010Z,100.00
2022-10-14T05:18:37.860Z,100.00
2022-10-14T05:21:07.938Z,100.00
2022-10-14T05:23:35.755Z,100.00
2022-10-14T05:26:05.189Z,100.00
2022-10-14T05:28:35.242Z,100.00
2022-10-14T05:31:03.081Z,100.00
2022-10-14T05:33:32.719Z,100.00
2022-10-14T05:36:02.630Z,100.00
2022-10-14T05:38:33.069Z,100.00
2022-10-14T05:41:02.802Z,100.00
2022-10-14T05:43:33.792Z,100.00
2022-10-14T05:46:01.739Z,100.00
2022-10-14T05:48:31.540Z,100.00
2022-10-14T05:51:03.362Z,100.00
2022-10-14T05:53:35.278Z,100.00
2022-10-14T05:56:04.104Z,100.00
2022-10-14T05:58:35.618Z,100.00
2022-10-14T06:01:06.441Z,100.00
2022-10-14T06:03:34.370Z,100.00
2022-10-14T06:06:04.326Z,100.00
2022-10-14T06:08:36.219Z,100.00
2022-10-14T06:11:05.324Z,100.00
2022-10-14T06:13:34.528Z,100.00
2022-10-14T06:16:07.494Z,100.00
2022-10-14T06:18:36.024Z,100.00
2022-10-14T06:21:04.015Z,100.00
2022-10-14T06:23:38.032Z,100.00
2022-10-14T06:26:06.507Z,100.00
2022-10-14T06:28:35.855Z,100.00
2022-10-14T06:31:04.136Z,100.00
2022-10-14T06:33:31.960Z,100.00
2022-10-14T06:36:02.858Z,100.00
2022-10-14T06:38:30.977Z,100.00
2022-10-14T06:40:58.726Z,100.00
2022-10-14T06:43:26.543Z,100.00
2022-10-14T06:46:00.553Z,100.00
2022-10-14T06:48:28.668Z,100.00
2022-10-14T06:50:56.552Z,100.00
2022-10-14T06:53:28.353Z,100.00
2022-10-14T06:56:00.760Z,100.00
2022-10-14T06:58:31.278Z,100.00
2022-10-14T07:01:03.967Z,100.00
2022-10-14T07:03:38.269Z,100.00
2022-10-14T07:06:07.370Z,100.00
2022-10-14T07:08:41.989Z,100.00
2022-10-14T07:11:09.766Z,100.00
2022-10-14T07:13:37.857Z,100.00
2022-10-14T07:16:10.950Z,100.00
2022-10-14T07:18:38.803Z,100.00
2022-10-14T07:21:07.756Z,100.00
2022-10-14T07:23:35.650Z,100.00
2022-10-14T07:26:03.494Z,100.00
2022-10-14T07:28:31.557Z,100.00
2022-10-14T07:31:05.176Z,100.00
2022-10-14T07:36:07.957Z,100.00
2022-10-14T07:38:35.713Z,100.00
2022-10-14T07:41:05.060Z,100.00
2022-10-14T07:43:34.169Z,100.00
2022-10-14T07:46:04.072Z,100.00
2022-10-14T07:48:52.608Z,100.00
2022-10-14T07:51:24.048Z,100.00
2022-10-14T07:53:53.234Z,100.00
2022-10-14T07:56:21.473Z,100.00
2022-10-14T07:58:51.739Z,100.00
2022-10-14T08:01:22.103Z,100.00
2022-10-14T08:03:53.744Z,100.00
2022-10-14T08:06:22.243Z,100.00
2022-10-14T08:08:50.211Z,100.00
2022-10-14T08:11:20.512Z,100.00
2022-10-14T08:13:48.728Z,100.00
2022-10-14T08:16:20.646Z,100.00
2022-10-14T08:18:52.875Z,100.00
2022-10-14T08:21:21.626Z,100.00
2022-10-14T08:23:50.129Z,100.00
2022-10-14T08:26:28.667Z,100.00
2022-10-14T08:28:56.669Z,100.00
2022-10-14T08:31:26.761Z,100.00
2022-10-14T08:33:56.124Z,100.00
2022-10-14T08:36:24.287Z,100.00
2022-10-14T08:38:55.064Z,100.00
2022-10-14T08:41:47.603Z,100.00
2022-10-14T08:44:20.095Z,100.00
2022-10-14T08:46:54.450Z,100.00
2022-10-14T08:49:30.060Z,100.00
2022-10-14T08:52:04.068Z,100.00
2022-10-14T08:54:37.668Z,100.00
2022-10-14T08:59:43.077Z,100.00
2022-10-14T09:02:27.142Z,98.22
2022-10-14T09:04:56.855Z,98.27
2022-10-14T09:07:27.004Z,96.40
2022-10-14T09:10:01.829Z,95.45
2022-10-14T09:12:35.270Z,95.17
2022-10-14T09:15:16.231Z,94.57
2022-10-14T09:17:51.358Z,94.95
2022-10-14T09:20:25.233Z,94.88
2022-10-14T09:23:01.702Z,94.06
2022-10-14T09:25:35.686Z,94.74
2022-10-14T09:28:05.917Z,95.22
2022-10-14T09:30:40.964Z,95.34
2022-10-14T09:33:18.338Z,95.49
2022-10-14T09:35:50.756Z,94.02
2022-10-14T09:38:19.690Z,94.90
2022-10-14T09:40:57.155Z,93.06
2022-10-14T09:43:25.998Z,90.40
2022-10-14T09:45:57.737Z,89.88
2022-10-14T09:48:39.362Z,90.17
2022-10-14T09:51:10.174Z,90.24
2022-10-14T09:53:43.054Z,88.19
2022-10-14T09:56:11.298Z,87.23
2022-10-14T09:58:46.340Z,85.15
2022-10-14T10:01:19.288Z,84.68
2022-10-14T10:03:53.161Z,83.21
2022-10-14T10:06:25.721Z,82.50
2022-10-14T10:09:03.163Z,83.34
2022-10-14T10:11:33.443Z,82.50
2022-10-14T10:14:19.408Z,82.99
2022-10-14T10:16:47.439Z,82.90
2022-10-14T10:19:30.161Z,82.76
2022-10-14T10:24:50.506Z,82.11
2022-10-14T10:27:25.027Z,80.82
2022-10-14T10:29:58.220Z,80.36
2022-10-14T10:32:34.392Z,79.91
2022-10-14T10:35:16.147Z,79.97
2022-10-14T10:37:57.524Z,76.15
2022-10-14T10:40:35.470Z,76.29
2022-10-14T10:43:32.231Z,78.38
2022-10-14T10:46:17.122Z,77.57
2022-10-14T10:48:48.356Z,77.02
2022-10-14T10:51:28.544Z,74.42
2022-10-14T10:54:08.863Z,74.57
2022-10-14T10:56:44.594Z,72.82
2022-10-14T10:59:37.518Z,72.78
2022-10-14T11:02:35.078Z,71.41
2022-10-14T11:05:11.874Z,71.56
2022-10-14T11:08:13.167Z,71.77
2022-10-14T11:11:09.522Z,72.43
2022-10-14T11:13:50.393Z,73.12
2022-10-14T11:16:26.650Z,72.70
2022-10-14T11:19:09.710Z,71.41
2022-10-14T11:21:45.205Z,68.77
2022-10-14T11:24:30.593Z,69.59
2022-10-14T11:27:09.511Z,66.91
2022-10-14T11:29:52.517Z,66.00
2022-10-14T11:32:28.151Z,68.73
2022-10-14T11:35:10.562Z,67.60
2022-10-14T11:37:52.237Z,68.90
2022-10-14T11:40:30.909Z,68.11
2022-10-14T11:43:15.629Z,68.22
2022-10-14T11:45:52.657Z,65.15
2022-10-14T11:48:29.812Z,65.62
2022-10-14T11:51:08.474Z,63.98
2022-10-14T11:53:48.301Z,63.53
2022-10-14T11:56:28.384Z,65.27
2022-10-14T11:59:03.069Z,66.99
2022-10-14T12:01:38.178Z,68.85
2022-10-14T12:04:15.714Z,69.15
2022-10-14T12:06:50.227Z,70.45
2022-10-14T12:09:24.996Z,71.10
2022-10-14T12:11:57.104Z,69.09
2022-10-14T12:14:33.881Z,68.83
2022-10-14T12:17:05.008Z,67.85
2022-10-14T12:19:35.059Z,68.50
2022-10-14T12:22:10.849Z,66.77
2022-10-14T12:24:42.883Z,66.73
2022-10-14T12:27:13.971Z,65.04
2022-10-14T12:29:45.557Z,65.39
2022-10-14T12:32:24.573Z,65.25
2022-10-14T12:34:55.302Z,64.97
2022-10-14T12:37:53.072Z,66.50
2022-10-14T12:40:31.624Z,66.56
2022-10-14T12:43:25.564Z,66.18
2022-10-14T12:46:16.392Z,64.23
2022-10-14T12:48:52.781Z,64.50
2022-10-14T12:51:24.547Z,66.26
2022-10-14T12:54:00.514Z,63.95
2022-10-14T12:56:44.685Z,65.77
2022-10-14T12:59:27.671Z,68.28
2022-10-14T13:02:01.809Z,67.61
2022-10-14T13:04:32.265Z,67.60
2022-10-14T13:07:46.151Z,69.42
2022-10-14T13:10:47.397Z,69.39
2022-10-14T13:13:52.716Z,71.84
2022-10-14T13:17:06.838Z,71.10
2022-10-14T13:19:47.451Z,71.23
2022-10-14T13:22:38.335Z,72.78
2022-10-14T13:25:14.071Z,71.49
2022-10-14T13:28:04.629Z,71.37
2022-10-14T13:30:38.480Z,71.90
2022-10-14T13:33:18.583Z,72.63
2022-10-14T13:36:00.451Z,71.60
2022-10-14T13:38:29.557Z,71.54
2022-10-14T13:41:00.346Z,71.69
2022-10-14T13:43:30.648Z,73.46
2022-10-14T13:46:04.592Z,74.61
2022-10-14T13:48:37.852Z,75.24
2022-10-14T13:51:42.113Z,74.40
2022-10-14T13:54:19.575Z,75.24
2022-10-14T13:57:35.052Z,75.90
2022-10-14T14:00:28.125Z,75.09
2022-10-14T14:02:39.625Z,77.20
2022-10-14T14:05:15.223Z,78.03
2022-10-14T14:10:42.446Z,78.40
2022-10-14T14:13:15.104Z,79.17
2022-10-14T14:15:45.582Z,80.89
2022-10-14T14:18:56.174Z,81.83
2022-10-14T14:21:32.781Z,81.67
2022-10-14T14:24:03.058Z,83.86
2022-10-14T14:26:36.752Z,81.26
2022-10-14T14:29:06.120Z,80.90
2022-10-14T14:32:01.444Z,80.73
2022-10-14T14:34:25.917Z,80.80
2022-10-14T14:37:01.323Z,80.65
2022-10-14T14:39:38.719Z,80.75
2022-10-14T14:42:06.694Z,80.79
2022-10-14T14:44:35.366Z,80.27
2022-10-14T14:47:05.032Z,81.12
2022-10-14T14:49:36.535Z,80.46
2022-10-14T14:52:04.839Z,80.50
2022-10-14T14:54:34.095Z,82.77
2022-10-14T14:57:07.853Z,82.78
2022-10-14T14:59:38.797Z,82.89
2022-10-14T15:02:16.715Z,83.34
2022-10-14T15:04:45.096Z,84.59
2022-10-14T15:07:21.115Z,85.19
2022-10-14T15:09:54.035Z,87.14
2022-10-14T15:12:26.594Z,88.28
2022-10-14T15:14:56.540Z,89.95
2022-10-14T15:17:29.746Z,92.27
2022-10-14T15:19:58.911Z,93.25
2022-10-14T15:22:34.876Z,94.07
2022-10-14T15:25:15.444Z,95.85
2022-10-14T15:27:54.817Z,97.46
2022-10-14T15:30:31.886Z,98.47
2022-10-14T15:33:01.960Z,96.96
2022-10-14T15:35:30.173Z,95.87
2022-10-14T15:37:58.257Z,96.02
2022-10-14T15:40:30.684Z,96.82
2022-10-14T15:43:01.050Z,95.71
2022-10-14T15:45:29.692Z,94.72
2022-10-14T15:48:03.787Z,96.64
2022-10-14T15:50:36.173Z,98.14
2022-10-14T15:53:04.171Z,99.16
2022-10-14T15:55:37.319Z,100.00
2022-10-14T15:58:07.422Z,100.00
2022-10-14T16:00:36.748Z,100.00
2022-10-14T16:03:06.815Z,99.93
2022-10-14T16:05:34.814Z,100.00
2022-10-14T16:08:03.416Z,99.60
2022-10-14T16:10:34.468Z,99.18
2022-10-14T16:13:05.812Z,100.00
2022-10-14T16:15:41.180Z,99.29
2022-10-14T16:18:09.072Z,99.16
2022-10-14T16:20:37.092Z,100.00
2022-10-14T16:23:05.423Z,100.00
2022-10-14T16:25:38.953Z,100.00
2022-10-14T16:28:10.166Z,99.86
2022-10-14T16:30:40.188Z,99.60
2022-10-14T16:33:08.314Z,100.00
2022-10-14T16:35:38.209Z,100.00
2022-10-14T16:38:05.984Z,100.00
2022-10-14T16:40:36.729Z,100.00
2022-10-14T16:43:10.623Z,100.00
2022-10-14T16:45:38.434Z,100.00
2022-10-14T16:48:06.239Z,100.00
2022-10-14T16:50:42.146Z,100.00
2022-10-14T16:53:27.237Z,100.00
2022-10-14T16:55:57.876Z,100.00
2022-10-14T16:58:27.968Z,100.00
2022-10-14T17:00:55.881Z,100.00
2022-10-14T17:03:27.970Z,100.00
2022-10-14T17:05:58.937Z,100.00
2022-10-14T17:08:30.839Z,100.00
2022-10-14T17:10:59.037Z,100.00
2022-10-14T17:13:28.422Z,100.00
2022-10-14T17:16:02.181Z,98.85
2022-10-14T17:18:34.525Z,100.00
2022-10-14T17:21:09.937Z,100.00
2022-10-14T17:23:39.201Z,100.00
2022-10-14T17:26:13.914Z,100.00
2022-10-14T17:28:43.630Z,100.00
2022-10-14T17:31:18.367Z,100.00
2022-10-14T17:33:46.709Z,100.00
2022-10-14T17:36:19.805Z,100.00
2022-10-14T17:38:50.126Z,100.00
2022-10-14T17:41:19.070Z,100.00
2022-10-14T17:43:53.220Z,100.00
2022-10-14T17:46:24.987Z,100.00
2022-10-14T17:48:54.924Z,100.00
2022-10-14T17:51:25.387Z,100.00
2022-10-14T17:53:53.770Z,100.00
2022-10-14T17:56:22.430Z,100.00
2022-10-14T17:58:54.680Z,100.00
2022-10-14T18:01:37.130Z,100.00
2022-10-14T18:04:13.506Z,100.00
2022-10-14T18:06:44.477Z,100.00
2022-10-14T18:09:13.068Z,100.00
2022-10-14T18:14:36.555Z,100.00
2022-10-14T18:17:07.163Z,100.00
2022-10-14T18:19:35.408Z,100.00
2022-10-14T18:22:06.685Z,100.00
2022-10-14T18:24:38.511Z,100.00
2022-10-14T18:27:08.877Z,100.00
2022-10-14T18:29:38.191Z,100.00
2022-10-14T18:32:08.562Z,100.00
2022-10-14T18:34:38.920Z,100.00
2022-10-14T18:37:09.070Z,100.00
2022-10-14T18:39:39.396Z,100.00
2022-10-14T18:42:07.447Z,100.00
2022-10-14T18:44:35.500Z,100.00
2022-10-14T18:47:07.418Z,100.00
2022-10-14T18:49:40.809Z,100.00
2022-10-14T18:52:15.274Z,100.00
2022-10-14T18:54:43.322Z,100.00
2022-10-14T18:57:15.363Z,100.00
2022-10-14T18:59:44.373Z,100.00
2022-10-14T19:02:17.071Z,100.00
2022-10-14T19:04:55.176Z,100.00
2022-10-14T19:07:24.119Z,100.00
2022-10-14T19:09:54.166Z,100.00
2022-10-14T19:12:46.114Z,100.00
2022-10-14T19:15:15.145Z,100.00
2022-10-14T19:17:53.628Z,100.00
2022-10-14T19:20:23.064Z,100.00
2022-10-14T19:22:56.997Z,100.00
2022-10-14T19:25:26.125Z,100.00
2022-10-14T19:27:54.326Z,100.00
2022-10-14T19:30:23.163Z,100.00
2022-10-14T19:32:52.689Z,100.00
2022-10-14T19:35:21.806Z,100.00
2022-10-14T19:37:54.006Z,100.00
2022-10-14T19:40:23.703Z,100.00
2022-10-14T19:42:51.758Z,100.00
2022-10-14T19:45:24.127Z,100.00
2022-10-14T19:47:53.546Z,100.00
2022-10-14T19:50:21.406Z,100.00
2022-10-14T19:52:55.939Z,100.00
2022-10-14T19:55:24.096Z,100.00
2022-10-14T19:57:56.043Z,100.00
2022-10-14T20:00:27.235Z,100.00
2022-10-14T20:02:56.418Z,100.00
2022-10-14T20:05:24.365Z,100.00
2022-10-14T20:08:04.099Z,100.00
2022-10-14T20:10:31.892Z,100.00
2022-10-14T20:12:59.878Z,100.00
2022-10-14T20:15:27.855Z,100.00
2022-10-14T20:17:57.071Z,100.00
2022-10-14T20:20:27.083Z,100.00
2022-10-14T20:22:59.008Z,100.00
2022-10-14T20:25:27.298Z,100.00
2022-10-14T20:27:55.085Z,100.00
2022-10-14T20:30:27.100Z,100.00
2022-10-14T20:32:56.270Z,100.00
2022-10-14T20:35:24.138Z,100.00
2022-10-14T20:37:56.001Z,100.00
2022-10-14T20:40:23.765Z,100.00
2022-10-14T20:42:52.229Z,100.00
2022-10-14T20:45:26.790Z,100.00
2022-10-14T20:47:56.010Z,100.00
2022-10-14T20:50:24.085Z,100.00
2022-10-14T20:52:55.822Z,100.00
2022-10-14T20:55:23.636Z,100.00
2022-10-14T20:57:51.490Z,100.00
2022-10-14T21:00:23.374Z,100.00
2022-10-14T21:02:51.354Z,100.00
2022-10-14T21:05:20.769Z,100.00
2022-10-14T21:07:50.619Z,100.00
2022-10-14T21:10:18.618Z,100.00
2022-10-14T21:12:48.716Z,100.00
2022-10-14T21:15:17.202Z,100.00
2022-10-14T21:17:48.766Z,100.00
2022-10-14T21:20:16.869Z,100.00
2022-10-14T21:22:49.942Z,100.00
2022-10-14T21:25:17.915Z,100.00
2022-10-14T21:27:45.682Z,100.00
2022-10-14T21:30:17.839Z,100.00
2022-10-14T21:32:45.644Z,100.00
2022-10-14T21:35:13.408Z,100.00
2022-10-14T21:37:45.176Z,100.00
2022-10-14T21:40:15.046Z,100.00
2022-10-14T21:42:42.845Z,100.00
2022-10-14T21:45:14.846Z,100.00
2022-10-14T21:47:42.680Z,100.00
2022-10-14T21:50:10.756Z,100.00
2022-10-14T21:52:42.649Z,100.00
2022-10-14T21:55:11.572Z,100.00
2022-10-14T21:57:40.728Z,100.00
2022-10-14T22:00:14.201Z,100.00
2022-10-14T22:02:42.034Z,100.00
2022-10-14T22:05:10.142Z,100.00
2022-10-14T22:07:42.123Z,100.00
2022-10-14T22:10:32.345Z,100.00
2022-10-14T22:13:03.412Z,100.00
2022-10-14T22:15:33.406Z,100.00
2022-10-14T22:18:01.177Z,100.00
2022-10-14T22:20:30.912Z,100.00
2022-10-14T22:23:00.979Z,100.00
2022-10-14T22:25:28.908Z,100.00
2022-10-14T22:27:58.602Z,100.00
2022-10-14T22:30:28.654Z,100.00
2022-10-14T22:32:58.862Z,100.00
2022-10-14T22:35:28.877Z,100.00
2022-10-14T22:37:57.155Z,100.00
2022-10-14T22:40:31.081Z,100.00
2022-10-14T22:42:58.909Z,100.00
2022-10-14T22:45:30.201Z,100.00
2022-10-14T22:48:01.077Z,100.00
2022-10-14T22:50:28.843Z,100.00
2022-10-14T22:52:58.862Z,100.00
2022-10-14T22:55:28.589Z,100.00
2022-10-14T22:57:56.332Z,100.00
2022-10-14T23:00:26.466Z,100.00
2022-10-14T23:02:57.571Z,100.00
2022-10-14T23:05:25.441Z,100.00
2022-10-14T23:07:55.515Z,100.00
2022-10-14T23:10:25.205Z,100.00
2022-10-14T23:12:53.020Z,100.00
2022-10-14T23:15:21.019Z,100.00
2022-10-14T23:17:48.859Z,100.00
2022-10-14T23:20:18.246Z,100.00
2022-10-14T23:22:48.196Z,100.00
2022-10-14T23:25:18.426Z,100.00
2022-10-14T23:30:16.040Z,100.00
2022-10-14T23:32:45.682Z,100.00
2022-10-14T23:35:15.709Z,100.00
2022-10-14T23:37:44.877Z,100.00
2022-10-14T23:40:16.225Z,100.00
2022-10-14T23:42:48.438Z,100.00
2022-10-14T23:45:16.385Z,100.00
2022-10-14T23:47:46.000Z,100.00
2022-10-14T23:50:16.157Z,100.00
2022-10-14T23:52:45.839Z,100.00
2022-10-14T23:55:15.537Z,100.00
2022-10-14T23:57:47.619Z,100.00
